Terminal Aerodrome Forecast
Issued by NWS

Home | Current Version | Previous Version | Text Only | Print | Product List | Glossary On
Versions: 1 2 3 4 5 6 7 8 9 10 11 12 13 14 15
000
FTUS44 KJAN 230520
TAFHKS
TAF
KHKS 230520Z 2306/2406 04003KT P6SM FEW250
     FM230700 00000KT 5SM BR FEW250
     FM230900 00000KT 1/2SM FG FEW015 SCT250
     FM231100 00000KT 1/4SM FG BKN003 BKN250
     FM231400 15004KT 3SM BR FEW008 SCT250
     FM231600 17007KT P6SM FEW090 SCT250=

USA.gov is the U.S. government's official web portal to all federal, state and local government web resources and services.